Arrange by
Date
Date
Title
Job #
Location
Descending   Sign Up for Job Agent Sign-up for Job Agent Jobs through RSS RSS Feed
Date Title Job # Location
04/09/2020 Senior Technical Consultant : 20-01150 20-01150 San Francisco, California
04/09/2020 Business Intelligence Engineer II : 20-01166 20-01166 Westborough, Massachusetts
04/09/2020 Electrical Engineer I : 20-01164 20-01164 Folsom, California
04/09/2020 Enablement Program Manager III : 20-01167 20-01167 Palo Alto, California
04/09/2020 System Software Developer : 20-01122 20-01122 Milpitas, California
04/09/2020 Technical Analyst : 20-01099 20-01099 Singapore, Singapore
04/09/2020 Middle Office Advisor I : 20-01101 20-01101 Tempe, Arizona
04/09/2020 Program Manager I- QA Lead/Tester : 20-01093 20-01093 Woodland Hills, California
04/09/2020 Program Manager II- Environmental Support Manager : 20-01090 20-01090 Woodland Hills, CA
04/09/2020 Application Developer III : 20-01092 20-01092 Woodland Hills, California
04/09/2020 Salesforce Marketing Cloud Manager : 20-01091 20-01091 Woodland Hills, California
04/09/2020 Guidewire Policy Center Developer I : 20-00907 20-00907 Oklahoma City, Oklahoma
04/09/2020 Embedded Developer : 20-00921 20-00921 Seattle, Washington
04/09/2020 Associate Digital Strategist : 20-00851 20-00851 Palo Alto, California
04/09/2020 Training Program Lead (Instructional Designer) : 20-00786 20-00786 San Mateo, California
04/09/2020 Senior Network Engineer : 20-00822 20-00822 Austin, Texas
04/09/2020 Relationship Associate (Customer Service) : 20-00779 20-00779 Santa Rosa, California
04/09/2020 Software Development Engineer II : 20-00758 20-00758 San Jose, California
04/09/2020 Senior HRIS Business Analyst : 20-00715 20-00715 Austin, Texas
04/09/2020 Software Eng Development III : 20-00611 20-00611 San Jose, California
04/09/2020 ETL Developer : 20-00486 20-00486 Woodland Hills, California
04/09/2020 Senior Project Manager V : 20-01011 20-01011 Boulder, Colorado
04/09/2020 Senior Sharepoint Developer: 20-00699 20-00699 Oakland, California
04/09/2020 Compliance Analyst : 20-01160 20-01160 Austin, Texas
04/09/2020 Digital Product Manager : 20-01157 20-01157 Pleasanton, California
04/09/2020 UX/Web Content Writer : 20-01158 20-01158 Pasadena, California
04/09/2020 Financial Analyst IV : 20-01002 20-01002 Draper, Utah
04/08/2020 Full stack Developer : 20-01087 20-01087 Seattle, Washington
04/08/2020 Marketing Manager II : 20-01152 20-01152 Englewood, Colorado
04/08/2020 Business Analyst Product Marketing Forecasting Operations : 18-00770 20-01154 San Jose, California
Page:  1 2 3 4 5 Next     | 1 to 30 of 140 result(s)     records per page